createdAt,value
2018-09-12T00:04:24.138Z,2.80
2018-09-12T00:09:28.389Z,2.20
2018-09-12T00:14:31.578Z,2.30
2018-09-12T00:19:34.795Z,2.00
2018-09-12T00:24:37.991Z,2.70
2018-09-12T00:29:48.944Z,2.47
2018-09-12T00:34:52.143Z,2.20
2018-09-12T00:39:55.414Z,2.47
2018-09-12T00:44:58.647Z,2.37
2018-09-12T00:50:04.247Z,2.60
2018-09-12T00:55:07.502Z,2.33
2018-09-12T01:00:10.709Z,2.37
2018-09-12T01:05:13.938Z,1.97
2018-09-12T01:10:17.203Z,2.40
2018-09-12T01:15:21.476Z,2.70
2018-09-12T01:20:24.710Z,2.20
2018-09-12T01:25:27.982Z,2.83
2018-09-12T01:30:31.221Z,2.53
2018-09-12T01:35:34.468Z,2.33
2018-09-12T01:40:37.654Z,2.63
2018-09-12T01:45:40.938Z,2.67
2018-09-12T01:50:44.142Z,2.70
2018-09-12T01:55:47.604Z,2.97
2018-09-12T02:00:50.894Z,3.20
2018-09-12T02:05:54.143Z,3.00
2018-09-12T02:10:57.354Z,2.80
2018-09-12T02:16:00.539Z,3.67
2018-09-12T02:21:03.745Z,3.00
2018-09-12T02:26:07.004Z,3.57
2018-09-12T02:31:10.193Z,3.67
2018-09-12T02:36:18.683Z,3.90
2018-09-12T02:41:21.891Z,3.30
2018-09-12T02:46:26.207Z,3.60
2018-09-12T02:51:29.450Z,3.43
2018-09-12T02:56:32.709Z,3.07
2018-09-12T03:01:35.908Z,3.10
2018-09-12T03:06:39.142Z,2.77
2018-09-12T03:11:42.355Z,3.37
2018-09-12T03:16:45.627Z,2.90
2018-09-12T03:21:48.882Z,4.00
2018-09-12T03:26:52.135Z,4.23
2018-09-12T03:31:55.314Z,4.17
2018-09-12T03:36:58.562Z,4.10
2018-09-12T03:42:01.804Z,4.30
2018-09-12T03:47:05.034Z,3.60
2018-09-12T03:52:08.344Z,3.57
2018-09-12T03:57:11.725Z,3.20
2018-09-12T04:02:14.946Z,3.00
2018-09-12T04:07:18.210Z,3.67
2018-09-12T04:12:21.561Z,2.87
2018-09-12T04:17:29.280Z,3.37
2018-09-12T04:22:33.060Z,4.33
2018-09-12T04:27:36.475Z,3.67
2018-09-12T04:32:39.800Z,3.40
2018-09-12T04:37:43.105Z,3.57
2018-09-12T04:42:48.564Z,3.50
2018-09-12T04:47:57.407Z,3.30
2018-09-12T04:53:00.846Z,3.87
2018-09-12T04:58:04.400Z,3.03
2018-09-12T05:03:07.711Z,3.70
2018-09-12T05:08:10.968Z,3.70
2018-09-12T05:13:14.358Z,4.20
2018-09-12T05:18:18.086Z,4.23
2018-09-12T05:23:21.353Z,4.03
2018-09-12T05:28:25.831Z,4.00
2018-09-12T05:33:30.218Z,4.33
2018-09-12T05:38:33.843Z,4.30
2018-09-12T05:43:37.546Z,4.37
2018-09-12T05:48:40.907Z,4.37
2018-09-12T05:53:50.089Z,4.63
2018-09-12T05:58:53.810Z,4.53
2018-09-12T06:03:57.077Z,4.53
2018-09-12T06:09:00.394Z,4.03
2018-09-12T06:14:03.781Z,4.53
2018-09-12T06:19:07.486Z,4.70
2018-09-12T06:24:10.849Z,4.70
2018-09-12T06:29:14.257Z,4.87
2018-09-12T06:34:17.546Z,4.10
2018-09-12T06:39:21.003Z,5.93
2018-09-12T06:44:24.298Z,4.67
2018-09-12T06:49:27.609Z,5.20
2018-09-12T06:54:31.030Z,5.40
2018-09-12T06:59:35.440Z,5.53
2018-09-12T07:04:38.745Z,6.60
2018-09-12T07:09:42.111Z,6.20
2018-09-12T07:14:45.854Z,6.03
2018-09-12T07:19:49.226Z,5.47
2018-09-12T07:24:52.679Z,5.40
2018-09-12T07:29:56.070Z,6.07
2018-09-12T07:35:00.458Z,6.50
2018-09-12T07:40:04.950Z,7.00
2018-09-12T07:45:09.490Z,7.30
2018-09-12T07:50:13.082Z,6.73
2018-09-12T07:55:17.084Z,6.40
2018-09-12T08:00:20.388Z,6.10
2018-09-12T08:05:23.779Z,6.73
2018-09-12T08:10:27.350Z,5.93
2018-09-12T08:15:30.644Z,7.03
2018-09-12T08:20:34.130Z,6.60
2018-09-12T08:25:38.612Z,8.40
2018-09-12T08:30:42.600Z,8.33
2018-09-12T08:35:49.126Z,8.43
2018-09-12T08:40:52.534Z,8.67
2018-09-12T08:45:56.036Z,10.43
2018-09-12T08:50:59.414Z,12.07
2018-09-12T08:56:02.864Z,10.77
2018-09-12T09:01:06.909Z,12.33
2018-09-12T09:06:10.838Z,10.60
2018-09-12T09:11:18.704Z,10.50
2018-09-12T09:16:23.638Z,7.63
2018-09-12T09:21:28.182Z,7.07
2018-09-12T09:26:35.170Z,8.07
2018-09-12T09:31:48.306Z,7.07
2018-09-12T09:36:52.158Z,6.30
2018-09-12T09:41:55.810Z,5.30
2018-09-12T09:46:59.151Z,4.77
2018-09-12T09:52:02.977Z,5.73
2018-09-12T09:57:06.318Z,5.10
2018-09-12T10:02:15.467Z,5.00
2018-09-12T10:07:24.750Z,4.27
2018-09-12T10:12:28.166Z,3.87
2018-09-12T10:17:31.872Z,4.77
2018-09-12T10:22:36.797Z,4.27
2018-09-12T10:27:40.347Z,4.83
2018-09-12T10:32:43.812Z,4.30
2018-09-12T10:37:55.338Z,4.23
2018-09-12T10:43:00.771Z,4.40
2018-09-12T10:48:06.587Z,4.90
2018-09-12T10:53:10.188Z,4.97
2018-09-12T10:58:14.786Z,5.90
2018-09-12T11:03:20.276Z,5.87
2018-09-12T11:08:23.772Z,5.57
2018-09-12T11:13:28.263Z,5.57
2018-09-12T11:18:32.002Z,5.97
2018-09-12T11:23:36.370Z,6.13
2018-09-12T11:28:40.125Z,6.13
2018-09-12T11:33:45.731Z,6.00
2018-09-12T11:38:49.555Z,6.00
2018-09-12T11:43:54.031Z,5.20
2018-09-12T11:49:03.979Z,4.80
2018-09-12T11:54:15.448Z,4.73
2018-09-12T11:59:20.315Z,5.30
2018-09-12T12:04:24.786Z,5.70
2018-09-12T12:09:28.108Z,4.10
2018-09-12T12:14:31.769Z,4.43
2018-09-12T12:19:45.871Z,4.60
2018-09-12T12:24:49.199Z,5.03
2018-09-12T12:29:52.986Z,9.50
2018-09-12T12:34:56.340Z,10.30
2018-09-12T12:40:01.022Z,9.70
2018-09-12T12:45:04.739Z,8.90
2018-09-12T12:50:10.510Z,8.47
2018-09-12T12:55:15.583Z,7.73
2018-09-12T13:00:25.061Z,7.50
2018-09-12T13:05:32.830Z,7.17
2018-09-12T13:10:40.749Z,7.17
2018-09-12T13:15:44.726Z,7.17
2018-09-12T13:20:56.131Z,6.40
2018-09-12T13:26:01.792Z,5.10
2018-09-12T13:31:15.328Z,6.27
2018-09-12T13:36:32.751Z,5.97
2018-09-12T13:41:37.252Z,4.67
2018-09-12T13:46:41.460Z,2.90
2018-09-12T13:51:45.417Z,2.80
2018-09-12T13:56:49.542Z,2.13
2018-09-12T14:01:56.121Z,2.10
2018-09-12T14:06:59.584Z,2.60
2018-09-12T14:12:05.366Z,2.63
2018-09-12T14:17:11.026Z,3.33
2018-09-12T14:22:14.973Z,2.97
2018-09-12T14:27:18.358Z,3.40
2018-09-12T14:32:22.521Z,2.70
2018-09-12T14:37:27.132Z,3.33
2018-09-12T14:42:37.518Z,4.83
2018-09-12T14:47:51.172Z,4.30
2018-09-12T14:53:00.938Z,3.40
2018-09-12T14:58:06.219Z,2.70
2018-09-12T15:03:12.225Z,2.67
2018-09-12T15:08:15.923Z,2.10
2018-09-12T15:13:19.432Z,2.20
2018-09-12T15:18:27.359Z,2.17
2018-09-12T15:23:38.054Z,1.23
2018-09-12T15:28:44.158Z,1.40
2018-09-12T15:33:49.875Z,1.10
2018-09-12T15:39:11.761Z,0.83
2018-09-12T15:44:17.875Z,1.30
2018-09-12T15:49:21.752Z,1.33
2018-09-12T15:54:26.314Z,1.97
2018-09-12T15:59:29.543Z,2.80
2018-09-12T16:04:32.782Z,4.63
2018-09-12T16:09:36.552Z,3.57
2018-09-12T16:14:47.402Z,2.73
2018-09-12T16:19:50.990Z,2.60
2018-09-12T16:24:54.765Z,4.00
2018-09-12T16:29:58.546Z,4.10
2018-09-12T16:35:01.987Z,3.90
2018-09-12T16:40:05.497Z,4.30
2018-09-12T16:45:09.956Z,3.50
2018-09-12T16:50:13.241Z,4.70
2018-09-12T16:55:19.206Z,5.33
2018-09-12T17:00:22.670Z,6.67
2018-09-12T17:05:28.230Z,5.80
2018-09-12T17:10:35.719Z,5.90
2018-09-12T17:15:47.246Z,5.83
2018-09-12T17:20:50.590Z,6.17
2018-09-12T17:25:54.376Z,5.23
2018-09-12T17:30:57.879Z,5.90
2018-09-12T17:36:01.213Z,7.07
2018-09-12T17:41:04.583Z,7.50
2018-09-12T17:46:07.879Z,8.53
2018-09-12T17:51:11.223Z,6.00
2018-09-12T17:56:15.394Z,5.20
2018-09-12T18:01:24.617Z,4.50
2018-09-12T18:06:27.882Z,4.20
2018-09-12T18:11:31.121Z,4.37
2018-09-12T18:16:34.296Z,4.70
2018-09-12T18:21:39.213Z,3.50
2018-09-12T18:26:42.479Z,3.47
2018-09-12T18:31:45.776Z,3.67
2018-09-12T18:36:49.528Z,3.70
2018-09-12T18:41:54.090Z,5.00
2018-09-12T18:46:59.205Z,4.80
2018-09-12T18:52:04.592Z,6.27
2018-09-12T18:57:09.074Z,6.30
2018-09-12T19:02:18.185Z,4.70
2018-09-12T19:07:21.501Z,6.37
2018-09-12T19:12:24.780Z,6.43
2018-09-12T19:17:28.202Z,7.57
2018-09-12T19:22:31.498Z,7.97
2018-09-12T19:27:34.799Z,8.50
2018-09-12T19:32:38.074Z,9.77
2018-09-12T19:37:41.338Z,10.50
2018-09-12T19:42:45.876Z,10.30
2018-09-12T19:47:49.073Z,11.70
2018-09-12T19:52:52.661Z,11.23
2018-09-12T19:57:55.927Z,12.97
2018-09-12T20:02:59.204Z,12.57
2018-09-12T20:08:02.409Z,12.33
2018-09-12T20:13:05.917Z,12.87
2018-09-12T20:18:09.171Z,11.47
2018-09-12T20:23:12.464Z,12.63
2018-09-12T20:28:15.815Z,12.20
2018-09-12T20:33:19.340Z,11.23
2018-09-12T20:38:22.631Z,12.23
2018-09-12T20:43:25.883Z,11.80
2018-09-12T20:48:29.258Z,11.93
2018-09-12T20:53:32.492Z,12.33
2018-09-12T20:58:35.768Z,11.47
2018-09-12T21:03:39.014Z,12.37
2018-09-12T21:08:42.275Z,11.20
2018-09-12T21:13:45.569Z,11.43
2018-09-12T21:18:48.886Z,11.93
2018-09-12T21:23:52.103Z,12.13
2018-09-12T21:28:58.590Z,12.93
2018-09-12T21:34:01.830Z,12.40
2018-09-12T21:39:08.113Z,14.00
2018-09-12T21:44:11.309Z,13.50
2018-09-12T21:49:14.598Z,13.10
2018-09-12T21:54:17.842Z,12.47
2018-09-12T21:59:21.062Z,12.97
2018-09-12T22:04:24.266Z,13.20
2018-09-12T22:09:27.538Z,10.10
2018-09-12T22:14:30.753Z,12.13
2018-09-12T22:19:35.207Z,13.40
2018-09-12T22:24:38.471Z,13.30
2018-09-12T22:29:41.722Z,14.97
2018-09-12T22:34:45.073Z,14.37
2018-09-12T22:39:48.298Z,13.60
2018-09-12T22:44:51.541Z,13.67
2018-09-12T22:49:54.854Z,14.93
2018-09-12T22:54:58.091Z,13.33
2018-09-12T23:00:01.354Z,11.70
2018-09-12T23:05:04.586Z,11.97
2018-09-12T23:10:07.843Z,10.80
2018-09-12T23:15:11.239Z,11.10
2018-09-12T23:20:14.528Z,10.60
2018-09-12T23:25:17.752Z,10.77
2018-09-12T23:30:21.015Z,9.30
2018-09-12T23:35:24.238Z,10.63
2018-09-12T23:40:27.486Z,10.13
2018-09-12T23:45:31.826Z,10.80
2018-09-12T23:50:35.118Z,10.33
2018-09-12T23:55:38.456Z,10.53
